Terminal Aerodrome Forecast
Issued by NWS Portland, OR

Home | Current Version | Previous Version | Text Only | Print | Product List | Glossary On
Versions: 1 2 3 4 5 6 7 8 9 10 11 12 13 14 15 16 17 18 19 20 21 22 23 24 25 26 27 28 29 30 31 32 33 34 35 36 37 38 39 40 41 42 43
000
FTUS46 KPQR 290754 AAA
TAFPDX
TAF AMD
KPDX 290754Z 2908/3006 16008KT P6SM -SHRA SCT045 BKN100
      TEMPO 2908/2912 -TSRA BKN045CB OVC100
     FM291300 16011KT P6SM -RA SCT035 OVC060
     FM291600 19020G32KT P6SM -RA SCT025 OVC040
     FM292200 18014G24KT P6SM -RA SCT025 OVC040
     FM300400 20011KT P6SM -RA OVC040=

USA.gov is the U.S. government's official web portal to all federal, state and local government web resources and services.